EHKD/DHR METAR and TAF weather

Enter ICAO airport designator
Station Type Date Time Source
EHKD METAR 2019/05/26 22:55 UTC NOAA

EHKD 262255Z AUTO 28009KT 240V320 9999 FEW063 BKN077 OVC088 13/11 Q1008 BLU


Station Type Date Time Source
EHKD Decoded METAR 2019/05/26 22:55 UTC NOAA

De Kooy, Netherlands (EHKD) 52-55N 004-47E 14M
May 26, 2019 - 06:55 PM EDT / 2019.05.26 2255 UTC
Wind: from the W (280 degrees) at 10 MPH (9 KT) (direction variable):0
Visibility: greater than 7 mile(s):0
Sky conditions: overcast
Temperature: 55 F (13 C)
Dew Point: 51 F (11 C)
Relative Humidity: 87%
Pressure (altimeter): 29.77 in. Hg (1008 hPa)
ob: EHKD 262255Z AUTO 28009KT 240V320 9999 FEW063 BKN077 OVC088 13/11 Q1008 BLU
cycle: 23

Station Type Date Time Source
EHKD TAF 2019/05/26 13:09 UTC NOAA

TAF TAF EHKD 261240Z 2613/2701 22017G27KT 9999 FEW015 SCT025
BECMG 2615/2618 SCT015 BKN020
TEMPO 2615/2622 4000 RA SCT005 BKN008 OVC010 PROB40
TEMPO 2617/2622 3000 SHRA TSRA SCT004 BKN007 OVC009 SCT030CB
BECMG 2622/2701 27012KT SCT025

Example: see airport list